KPVB

Platteville Municipal Airport

Platteville, Wisconsin, USA
METAR KPVB 190655Z AUTO 21007KT 10SM CLR M06/M07 A2987 RMK AO1 T10581072
Observed Flight Rules
Jan-19 @ 06:55 UTC (22 minutes ago) Visual Flight Rules
Wind Visibility Clouds
210° at 7 knots 10 miles
  • Clear skies
Temperatures Readings
Current -6°C / 21°F
Dewpoint -7°C / 19°F
Humidity 93%
Altimeter 29.87" Hg
Pressure 1012 hPa
Elevation 313
METAR KPVB 190655Z AUTO 21007KT 10SM CLR M06/M07 A2987 RMK AO1 T10581072
Observed Flight Rules
Jan-19 @ 06:55 UTC
(22 minutes ago)
VFR
Wind Visibility
210° at 7 knots 10 miles
Clouds
  • Clear skies
Temperature Dewpoint
-6°C / 21°F -7°C / 19°F
Humidity Altimeter Pressure
93% 29.87" Hg 1012 hPa